sensor_id;sensor_type;location;lat;lon;timestamp;pressure;altitude;pressure_sealevel;temperature
68510;BMP180;55512;50.102;19.958;2022-12-29T00:02:09;98653.80;;;2.90
68510;BMP180;55512;50.102;19.958;2022-12-29T00:04:34;98656.00;;;2.90
68510;BMP180;55512;50.102;19.958;2022-12-29T00:07:00;98648.40;;;2.90
68510;BMP180;55512;50.102;19.958;2022-12-29T00:09:26;98654.80;;;2.90
68510;BMP180;55512;50.102;19.958;2022-12-29T00:11:52;98650.40;;;2.90
68510;BMP180;55512;50.102;19.958;2022-12-29T00:14:18;98646.20;;;2.90
68510;BMP180;55512;50.102;19.958;2022-12-29T00:17:02;98646.80;;;2.96
68510;BMP180;55512;50.102;19.958;2022-12-29T00:19:29;98657.80;;;3.00
68510;BMP180;55512;50.102;19.958;2022-12-29T00:22:14;98656.20;;;3.00
68510;BMP180;55512;50.102;19.958;2022-12-29T00:24:59;98660.40;;;3.00
68510;BMP180;55512;50.102;19.958;2022-12-29T00:27:27;98664.40;;;3.00
68510;BMP180;55512;50.102;19.958;2022-12-29T00:30:21;98660.60;;;3.08
68510;BMP180;55512;50.102;19.958;2022-12-29T00:33:18;98655.80;;;3.10
68510;BMP180;55512;50.102;19.958;2022-12-29T00:36:10;98655.20;;;3.20
68510;BMP180;55512;50.102;19.958;2022-12-29T00:38:39;98654.80;;;3.20
68510;BMP180;55512;50.102;19.958;2022-12-29T00:41:26;98660.60;;;3.22
68510;BMP180;55512;50.102;19.958;2022-12-29T00:44:13;98656.00;;;3.22
68510;BMP180;55512;50.102;19.958;2022-12-29T00:46:41;98653.20;;;3.20
68510;BMP180;55512;50.102;19.958;2022-12-29T00:49:11;98655.40;;;3.20
68510;BMP180;55512;50.102;19.958;2022-12-29T00:52:02;98659.40;;;3.20
68510;BMP180;55512;50.102;19.958;2022-12-29T00:54:31;98659.80;;;3.18
68510;BMP180;55512;50.102;19.958;2022-12-29T00:56:57;98655.80;;;3.10
68510;BMP180;55512;50.102;19.958;2022-12-29T00:59:23;98660.20;;;3.10
68510;BMP180;55512;50.102;19.958;2022-12-29T01:01:50;98658.00;;;3.10
68510;BMP180;55512;50.102;19.958;2022-12-29T01:04:16;98658.80;;;3.00
68510;BMP180;55512;50.102;19.958;2022-12-29T01:06:42;98657.60;;;3.00
68510;BMP180;55512;50.102;19.958;2022-12-29T01:09:09;98656.80;;;3.00
68510;BMP180;55512;50.102;19.958;2022-12-29T01:11:54;98650.40;;;3.00
68510;BMP180;55512;50.102;19.958;2022-12-29T01:14:21;98654.00;;;3.00
68510;BMP180;55512;50.102;19.958;2022-12-29T01:16:48;98655.40;;;3.00
68510;BMP180;55512;50.102;19.958;2022-12-29T01:19:15;98648.20;;;2.98
68510;BMP180;55512;50.102;19.958;2022-12-29T01:21:40;98645.00;;;2.94
68510;BMP180;55512;50.102;19.958;2022-12-29T01:24:06;98643.40;;;2.90
68510;BMP180;55512;50.102;19.958;2022-12-29T01:26:32;98632.80;;;2.90
68510;BMP180;55512;50.102;19.958;2022-12-29T01:28:57;98624.40;;;2.90
68510;BMP180;55512;50.102;19.958;2022-12-29T01:31:23;98626.40;;;2.90
68510;BMP180;55512;50.102;19.958;2022-12-29T01:33:49;98616.20;;;2.90
68510;BMP180;55512;50.102;19.958;2022-12-29T01:36:18;98617.40;;;2.90
68510;BMP180;55512;50.102;19.958;2022-12-29T01:38:44;98622.40;;;2.90
68510;BMP180;55512;50.102;19.958;2022-12-29T01:41:13;98624.20;;;2.90
68510;BMP180;55512;50.102;19.958;2022-12-29T01:48:40;98622.80;;;3.00
68510;BMP180;55512;50.102;19.958;2022-12-29T01:51:06;98620.60;;;3.00
68510;BMP180;55512;50.102;19.958;2022-12-29T01:53:34;98620.80;;;3.06
68510;BMP180;55512;50.102;19.958;2022-12-29T01:56:07;98615.00;;;3.10
68510;BMP180;55512;50.102;19.958;2022-12-29T01:58:38;98614.60;;;3.10
68510;BMP180;55512;50.102;19.958;2022-12-29T02:01:06;98618.40;;;3.20
68510;BMP180;55512;50.102;19.958;2022-12-29T02:03:32;98624.20;;;3.20
68510;BMP180;55512;50.102;19.958;2022-12-29T02:06:13;98615.20;;;3.22
68510;BMP180;55512;50.102;19.958;2022-12-29T02:08:40;98612.00;;;3.30
68510;BMP180;55512;50.102;19.958;2022-12-29T02:11:07;98613.40;;;3.30
68510;BMP180;55512;50.102;19.958;2022-12-29T02:13:33;98609.80;;;3.40
68510;BMP180;55512;50.102;19.958;2022-12-29T02:16:29;98607.80;;;3.40
68510;BMP180;55512;50.102;19.958;2022-12-29T02:28:08;98619.20;;;3.58
68510;BMP180;55512;50.102;19.958;2022-12-29T02:36:42;98601.40;;;3.60
68510;BMP180;55512;50.102;19.958;2022-12-29T02:42:04;98580.60;;;3.70
68510;BMP180;55512;50.102;19.958;2022-12-29T02:45:04;98574.80;;;3.70
68510;BMP180;55512;50.102;19.958;2022-12-29T02:48:24;98564.80;;;3.70
68510;BMP180;55512;50.102;19.958;2022-12-29T02:51:08;98563.60;;;3.76
68510;BMP180;55512;50.102;19.958;2022-12-29T02:53:36;98559.60;;;3.80
68510;BMP180;55512;50.102;19.958;2022-12-29T02:56:22;98554.00;;;3.80
68510;BMP180;55512;50.102;19.958;2022-12-29T02:58:47;98560.00;;;3.80
68510;BMP180;55512;50.102;19.958;2022-12-29T03:01:36;98563.60;;;3.80
68510;BMP180;55512;50.102;19.958;2022-12-29T03:07:48;98561.60;;;3.84
68510;BMP180;55512;50.102;19.958;2022-12-29T03:10:48;98557.40;;;3.84
68510;BMP180;55512;50.102;19.958;2022-12-29T03:16:44;98554.60;;;3.82
68510;BMP180;55512;50.102;19.958;2022-12-29T03:19:20;98545.60;;;3.82
68510;BMP180;55512;50.102;19.958;2022-12-29T03:22:01;98543.20;;;3.86
68510;BMP180;55512;50.102;19.958;2022-12-29T03:24:56;98550.60;;;3.86
68510;BMP180;55512;50.102;19.958;2022-12-29T03:27:29;98555.20;;;3.80
68510;BMP180;55512;50.102;19.958;2022-12-29T03:30:00;98557.40;;;3.80
68510;BMP180;55512;50.102;19.958;2022-12-29T03:32:38;98562.00;;;3.86
68510;BMP180;55512;50.102;19.958;2022-12-29T03:35:10;98559.60;;;3.82
68510;BMP180;55512;50.102;19.958;2022-12-29T03:37:43;98563.20;;;3.82
68510;BMP180;55512;50.102;19.958;2022-12-29T03:40:10;98562.80;;;3.80
68510;BMP180;55512;50.102;19.958;2022-12-29T03:42:38;98557.80;;;3.80
68510;BMP180;55512;50.102;19.958;2022-12-29T03:45:06;98561.60;;;3.70
68510;BMP180;55512;50.102;19.958;2022-12-29T03:47:32;98551.80;;;3.70
68510;BMP180;55512;50.102;19.958;2022-12-29T03:49:58;98544.40;;;3.70
68510;BMP180;55512;50.102;19.958;2022-12-29T03:52:24;98548.00;;;3.70
68510;BMP180;55512;50.102;19.958;2022-12-29T03:54:49;98549.60;;;3.66
68510;BMP180;55512;50.102;19.958;2022-12-29T03:57:14;98554.00;;;3.60
68510;BMP180;55512;50.102;19.958;2022-12-29T03:59:40;98553.60;;;3.60
68510;BMP180;55512;50.102;19.958;2022-12-29T04:02:05;98557.00;;;3.50
68510;BMP180;55512;50.102;19.958;2022-12-29T04:04:31;98567.80;;;3.50
68510;BMP180;55512;50.102;19.958;2022-12-29T04:06:56;98565.00;;;3.50
68510;BMP180;55512;50.102;19.958;2022-12-29T04:09:22;98554.60;;;3.50
68510;BMP180;55512;50.102;19.958;2022-12-29T04:11:47;98550.40;;;3.50
68510;BMP180;55512;50.102;19.958;2022-12-29T04:14:13;98551.40;;;3.50
68510;BMP180;55512;50.102;19.958;2022-12-29T04:16:38;98562.40;;;3.40
68510;BMP180;55512;50.102;19.958;2022-12-29T04:19:05;98566.40;;;3.40
68510;BMP180;55512;50.102;19.958;2022-12-29T04:21:31;98563.80;;;3.34
68510;BMP180;55512;50.102;19.958;2022-12-29T04:23:57;98563.80;;;3.30
68510;BMP180;55512;50.102;19.958;2022-12-29T04:26:22;98556.20;;;3.30
68510;BMP180;55512;50.102;19.958;2022-12-29T04:28:48;98552.80;;;3.30
68510;BMP180;55512;50.102;19.958;2022-12-29T04:31:13;98546.20;;;3.24
68510;BMP180;55512;50.102;19.958;2022-12-29T04:33:39;98537.80;;;3.20
68510;BMP180;55512;50.102;19.958;2022-12-29T04:36:05;98534.40;;;3.20
68510;BMP180;55512;50.102;19.958;2022-12-29T04:38:30;98532.00;;;3.20
68510;BMP180;55512;50.102;19.958;2022-12-29T04:41:00;98536.20;;;3.20
68510;BMP180;55512;50.102;19.958;2022-12-29T04:43:25;98526.20;;;3.20
68510;BMP180;55512;50.102;19.958;2022-12-29T04:45:51;98512.40;;;3.20
68510;BMP180;55512;50.102;19.958;2022-12-29T04:48:16;98506.80;;;3.20
68510;BMP180;55512;50.102;19.958;2022-12-29T04:50:43;98508.40;;;3.20
68510;BMP180;55512;50.102;19.958;2022-12-29T04:53:09;98510.20;;;3.18
68510;BMP180;55512;50.102;19.958;2022-12-29T04:55:34;98507.80;;;3.16
68510;BMP180;55512;50.102;19.958;2022-12-29T04:58:00;98510.40;;;3.10
68510;BMP180;55512;50.102;19.958;2022-12-29T05:00:26;98503.60;;;3.12
68510;BMP180;55512;50.102;19.958;2022-12-29T05:02:51;98507.80;;;3.20
68510;BMP180;55512;50.102;19.958;2022-12-29T05:05:18;98506.20;;;3.20
68510;BMP180;55512;50.102;19.958;2022-12-29T05:07:44;98508.60;;;3.20
68510;BMP180;55512;50.102;19.958;2022-12-29T05:17:11;98505.60;;;3.22
68510;BMP180;55512;50.102;19.958;2022-12-29T05:19:37;98505.40;;;3.26
68510;BMP180;55512;50.102;19.958;2022-12-29T05:22:04;98501.40;;;3.30
68510;BMP180;55512;50.102;19.958;2022-12-29T05:24:29;98502.40;;;3.30
68510;BMP180;55512;50.102;19.958;2022-12-29T05:26:55;98496.40;;;3.30
68510;BMP180;55512;50.102;19.958;2022-12-29T05:29:20;98496.80;;;3.30
68510;BMP180;55512;50.102;19.958;2022-12-29T05:31:46;98490.00;;;3.32
68510;BMP180;55512;50.102;19.958;2022-12-29T05:34:12;98500.00;;;3.40
68510;BMP180;55512;50.102;19.958;2022-12-29T05:36:38;98506.40;;;3.40
68510;BMP180;55512;50.102;19.958;2022-12-29T05:39:05;98507.00;;;3.40
68510;BMP180;55512;50.102;19.958;2022-12-29T05:41:33;98511.40;;;3.48
68510;BMP180;55512;50.102;19.958;2022-12-29T05:43:58;98506.80;;;3.50
68510;BMP180;55512;50.102;19.958;2022-12-29T05:46:24;98502.40;;;3.56
68510;BMP180;55512;50.102;19.958;2022-12-29T05:48:49;98505.00;;;3.60
68510;BMP180;55512;50.102;19.958;2022-12-29T05:51:15;98504.40;;;3.60
68510;BMP180;55512;50.102;19.958;2022-12-29T05:53:40;98512.80;;;3.62
68510;BMP180;55512;50.102;19.958;2022-12-29T05:56:06;98513.80;;;3.70
68510;BMP180;55512;50.102;19.958;2022-12-29T05:58:31;98513.00;;;3.70
68510;BMP180;55512;50.102;19.958;2022-12-29T06:00:57;98511.40;;;3.68
68510;BMP180;55512;50.102;19.958;2022-12-29T06:03:23;98509.80;;;3.60
68510;BMP180;55512;50.102;19.958;2022-12-29T06:05:48;98508.60;;;3.50
68510;BMP180;55512;50.102;19.958;2022-12-29T06:08:14;98501.00;;;3.50
68510;BMP180;55512;50.102;19.958;2022-12-29T06:10:40;98496.20;;;3.50
68510;BMP180;55512;50.102;19.958;2022-12-29T06:13:05;98497.60;;;3.50
68510;BMP180;55512;50.102;19.958;2022-12-29T06:15:35;98497.40;;;3.50
68510;BMP180;55512;50.102;19.958;2022-12-29T06:18:00;98495.60;;;3.50
68510;BMP180;55512;50.102;19.958;2022-12-29T06:20:26;98491.40;;;3.50
68510;BMP180;55512;50.102;19.958;2022-12-29T06:22:51;98497.00;;;3.50
68510;BMP180;55512;50.102;19.958;2022-12-29T06:25:17;98492.40;;;3.50
68510;BMP180;55512;50.102;19.958;2022-12-29T06:27:43;98500.60;;;3.50
68510;BMP180;55512;50.102;19.958;2022-12-29T06:30:10;98496.60;;;3.50
68510;BMP180;55512;50.102;19.958;2022-12-29T06:32:36;98501.60;;;3.56
68510;BMP180;55512;50.102;19.958;2022-12-29T06:35:03;98496.40;;;3.56
68510;BMP180;55512;50.102;19.958;2022-12-29T06:37:29;98502.40;;;3.62
68510;BMP180;55512;50.102;19.958;2022-12-29T06:39:54;98495.20;;;3.70
68510;BMP180;55512;50.102;19.958;2022-12-29T06:42:20;98497.20;;;3.70
68510;BMP180;55512;50.102;19.958;2022-12-29T06:44:46;98488.00;;;3.62
68510;BMP180;55512;50.102;19.958;2022-12-29T06:47:11;98499.80;;;3.60
68510;BMP180;55512;50.102;19.958;2022-12-29T06:49:37;98497.80;;;3.50
68510;BMP180;55512;50.102;19.958;2022-12-29T06:52:03;98493.60;;;3.50
68510;BMP180;55512;50.102;19.958;2022-12-29T06:54:32;98492.80;;;3.50
68510;BMP180;55512;50.102;19.958;2022-12-29T06:56:58;98486.00;;;3.52
68510;BMP180;55512;50.102;19.958;2022-12-29T06:59:24;98481.20;;;3.58
68510;BMP180;55512;50.102;19.958;2022-12-29T07:01:50;98480.20;;;3.60
68510;BMP180;55512;50.102;19.958;2022-12-29T07:04:16;98480.80;;;3.60
68510;BMP180;55512;50.102;19.958;2022-12-29T07:06:41;98487.80;;;3.60
68510;BMP180;55512;50.102;19.958;2022-12-29T07:09:08;98489.20;;;3.60
68510;BMP180;55512;50.102;19.958;2022-12-29T07:11:34;98491.20;;;3.60
68510;BMP180;55512;50.102;19.958;2022-12-29T07:14:00;98491.00;;;3.70
68510;BMP180;55512;50.102;19.958;2022-12-29T07:16:26;98489.40;;;3.70
68510;BMP180;55512;50.102;19.958;2022-12-29T07:18:52;98492.80;;;3.70
68510;BMP180;55512;50.102;19.958;2022-12-29T07:21:18;98497.00;;;3.70
68510;BMP180;55512;50.102;19.958;2022-12-29T07:23:44;98501.20;;;3.70
68510;BMP180;55512;50.102;19.958;2022-12-29T07:26:13;98508.80;;;3.70
68510;BMP180;55512;50.102;19.958;2022-12-29T07:28:39;98515.60;;;3.70
68510;BMP180;55512;50.102;19.958;2022-12-29T07:31:06;98509.60;;;3.70
68510;BMP180;55512;50.102;19.958;2022-12-29T07:33:32;98505.40;;;3.70
68510;BMP180;55512;50.102;19.958;2022-12-29T07:35:58;98507.20;;;3.70
68510;BMP180;55512;50.102;19.958;2022-12-29T07:38:24;98496.20;;;3.70
68510;BMP180;55512;50.102;19.958;2022-12-29T07:40:50;98488.20;;;3.70
68510;BMP180;55512;50.102;19.958;2022-12-29T07:43:15;98487.40;;;3.70
68510;BMP180;55512;50.102;19.958;2022-12-29T07:45:41;98484.60;;;3.72
68510;BMP180;55512;50.102;19.958;2022-12-29T07:48:06;98479.00;;;3.70
68510;BMP180;55512;50.102;19.958;2022-12-29T07:50:36;98478.20;;;3.74
68510;BMP180;55512;50.102;19.958;2022-12-29T07:53:02;98473.60;;;3.70
68510;BMP180;55512;50.102;19.958;2022-12-29T07:55:28;98466.80;;;3.78
68510;BMP180;55512;50.102;19.958;2022-12-29T07:57:56;98475.00;;;3.80
68510;BMP180;55512;50.102;19.958;2022-12-29T08:00:22;98477.00;;;3.80
68510;BMP180;55512;50.102;19.958;2022-12-29T08:02:48;98479.80;;;3.80
68510;BMP180;55512;50.102;19.958;2022-12-29T08:05:13;98484.00;;;3.88
68510;BMP180;55512;50.102;19.958;2022-12-29T08:07:39;98483.20;;;3.90
68510;BMP180;55512;50.102;19.958;2022-12-29T08:10:05;98484.80;;;3.90
68510;BMP180;55512;50.102;19.958;2022-12-29T08:12:31;98485.20;;;4.00
68510;BMP180;55512;50.102;19.958;2022-12-29T08:14:57;98482.00;;;4.00
68510;BMP180;55512;50.102;19.958;2022-12-29T08:17:22;98479.20;;;4.10
68510;BMP180;55512;50.102;19.958;2022-12-29T08:19:48;98479.80;;;4.10
68510;BMP180;55512;50.102;19.958;2022-12-29T08:22:14;98475.20;;;4.16
68510;BMP180;55512;50.102;19.958;2022-12-29T08:24:40;98475.60;;;4.20
68510;BMP180;55512;50.102;19.958;2022-12-29T08:27:05;98480.60;;;4.30
68510;BMP180;55512;50.102;19.958;2022-12-29T08:29:31;98484.60;;;4.30
68510;BMP180;55512;50.102;19.958;2022-12-29T08:31:56;98490.20;;;4.40
68510;BMP180;55512;50.102;19.958;2022-12-29T08:34:22;98493.20;;;4.40
68510;BMP180;55512;50.102;19.958;2022-12-29T08:36:47;98497.00;;;4.50
68510;BMP180;55512;50.102;19.958;2022-12-29T08:39:13;98495.00;;;4.60
68510;BMP180;55512;50.102;19.958;2022-12-29T08:41:39;98504.00;;;4.60
68510;BMP180;55512;50.102;19.958;2022-12-29T08:44:04;98505.80;;;4.70
68510;BMP180;55512;50.102;19.958;2022-12-29T08:46:30;98498.00;;;4.70
68510;BMP180;55512;50.102;19.958;2022-12-29T08:48:56;98492.80;;;4.80
68510;BMP180;55512;50.102;19.958;2022-12-29T08:51:22;98490.80;;;4.80
68510;BMP180;55512;50.102;19.958;2022-12-29T08:53:47;98493.00;;;4.84
68510;BMP180;55512;50.102;19.958;2022-12-29T08:56:13;98500.40;;;4.90
68510;BMP180;55512;50.102;19.958;2022-12-29T08:58:39;98494.40;;;4.98
68510;BMP180;55512;50.102;19.958;2022-12-29T09:01:05;98495.60;;;5.00
68510;BMP180;55512;50.102;19.958;2022-12-29T09:03:30;98497.80;;;5.10
68510;BMP180;55512;50.102;19.958;2022-12-29T09:05:56;98489.00;;;5.10
68510;BMP180;55512;50.102;19.958;2022-12-29T09:08:22;98482.80;;;5.18
68510;BMP180;55512;50.102;19.958;2022-12-29T09:10:49;98485.60;;;5.20
68510;BMP180;55512;50.102;19.958;2022-12-29T09:13:16;98488.20;;;5.30
68510;BMP180;55512;50.102;19.958;2022-12-29T09:15:42;98485.00;;;5.30
68510;BMP180;55512;50.102;19.958;2022-12-29T09:18:10;98488.20;;;5.36
68510;BMP180;55512;50.102;19.958;2022-12-29T09:20:36;98487.00;;;5.42
68510;BMP180;55512;50.102;19.958;2022-12-29T09:23:02;98477.00;;;5.50
68510;BMP180;55512;50.102;19.958;2022-12-29T09:25:28;98469.40;;;5.60
68510;BMP180;55512;50.102;19.958;2022-12-29T09:27:54;98460.20;;;5.60
68510;BMP180;55512;50.102;19.958;2022-12-29T09:30:22;98449.60;;;5.70
68510;BMP180;55512;50.102;19.958;2022-12-29T09:32:48;98454.80;;;5.80
68510;BMP180;55512;50.102;19.958;2022-12-29T09:35:15;98456.60;;;5.80
68510;BMP180;55512;50.102;19.958;2022-12-29T09:37:43;98458.20;;;5.90
68510;BMP180;55512;50.102;19.958;2022-12-29T09:40:39;98461.60;;;5.98
68510;BMP180;55512;50.102;19.958;2022-12-29T09:48:41;98466.80;;;6.30
68510;BMP180;55512;50.102;19.958;2022-12-29T09:51:15;98469.60;;;6.34
68510;BMP180;55512;50.102;19.958;2022-12-29T09:53:45;98475.60;;;6.40
68510;BMP180;55512;50.102;19.958;2022-12-29T09:56:18;98478.40;;;6.50
68510;BMP180;55512;50.102;19.958;2022-12-29T09:58:53;98478.60;;;6.60
68510;BMP180;55512;50.102;19.958;2022-12-29T10:01:41;98477.20;;;6.70
68510;BMP180;55512;50.102;19.958;2022-12-29T10:04:07;98477.80;;;6.70
68510;BMP180;55512;50.102;19.958;2022-12-29T10:06:57;98473.20;;;6.80
68510;BMP180;55512;50.102;19.958;2022-12-29T10:18:31;98463.20;;;7.10
68510;BMP180;55512;50.102;19.958;2022-12-29T10:23:52;98461.80;;;7.26
68510;BMP180;55512;50.102;19.958;2022-12-29T10:26:23;98453.80;;;7.40
68510;BMP180;55512;50.102;19.958;2022-12-29T10:29:04;98450.00;;;7.40
68510;BMP180;55512;50.102;19.958;2022-12-29T10:31:43;98450.80;;;7.56
68510;BMP180;55512;50.102;19.958;2022-12-29T10:34:30;98455.00;;;7.60
68510;BMP180;55512;50.102;19.958;2022-12-29T10:37:21;98451.20;;;7.70
68510;BMP180;55512;50.102;19.958;2022-12-29T10:39:53;98452.40;;;7.86
68510;BMP180;55512;50.102;19.958;2022-12-29T10:42:35;98451.00;;;7.98
68510;BMP180;55512;50.102;19.958;2022-12-29T10:45:04;98450.80;;;8.10
68510;BMP180;55512;50.102;19.958;2022-12-29T10:47:38;98444.20;;;8.24
68510;BMP180;55512;50.102;19.958;2022-12-29T10:50:05;98440.20;;;8.40
68510;BMP180;55512;50.102;19.958;2022-12-29T10:52:33;98432.80;;;8.50
68510;BMP180;55512;50.102;19.958;2022-12-29T10:55:07;98436.00;;;8.62
68510;BMP180;55512;50.102;19.958;2022-12-29T10:57:39;98435.20;;;8.80
68510;BMP180;55512;50.102;19.958;2022-12-29T11:00:21;98436.00;;;8.90
68510;BMP180;55512;50.102;19.958;2022-12-29T11:06:05;98420.20;;;9.26
68510;BMP180;55512;50.102;19.958;2022-12-29T11:08:39;98419.80;;;9.40
68510;BMP180;55512;50.102;19.958;2022-12-29T11:11:09;98424.40;;;9.50
68510;BMP180;55512;50.102;19.958;2022-12-29T11:14:31;98422.80;;;9.64
68510;BMP180;55512;50.102;19.958;2022-12-29T11:16:38;98426.20;;;9.80
68510;BMP180;55512;50.102;19.958;2022-12-29T11:19:04;98426.80;;;9.90
68510;BMP180;55512;50.102;19.958;2022-12-29T11:21:37;98427.20;;;10.00
68510;BMP180;55512;50.102;19.958;2022-12-29T11:24:25;98426.60;;;10.10
68510;BMP180;55512;50.102;19.958;2022-12-29T11:27:08;98430.80;;;10.10
68510;BMP180;55512;50.102;19.958;2022-12-29T11:29:41;98431.60;;;10.20
68510;BMP180;55512;50.102;19.958;2022-12-29T11:32:20;98428.60;;;10.22
68510;BMP180;55512;50.102;19.958;2022-12-29T11:34:47;98424.00;;;10.30
68510;BMP180;55512;50.102;19.958;2022-12-29T11:37:24;98414.40;;;10.40
68510;BMP180;55512;50.102;19.958;2022-12-29T11:39:56;98416.20;;;10.44
68510;BMP180;55512;50.102;19.958;2022-12-29T11:42:40;98417.80;;;10.50
68510;BMP180;55512;50.102;19.958;2022-12-29T11:45:17;98421.80;;;10.60
68510;BMP180;55512;50.102;19.958;2022-12-29T11:50:27;98417.20;;;10.80
68510;BMP180;55512;50.102;19.958;2022-12-29T11:53:20;98414.40;;;10.90
68510;BMP180;55512;50.102;19.958;2022-12-29T11:55:59;98413.20;;;11.00
68510;BMP180;55512;50.102;19.958;2022-12-29T11:58:35;98408.00;;;11.10
68510;BMP180;55512;50.102;19.958;2022-12-29T12:01:20;98413.80;;;11.20
68510;BMP180;55512;50.102;19.958;2022-12-29T12:06:32;98412.60;;;11.38
68510;BMP180;55512;50.102;19.958;2022-12-29T12:09:10;98408.60;;;11.40
68510;BMP180;55512;50.102;19.958;2022-12-29T12:11:42;98405.00;;;11.50
68510;BMP180;55512;50.102;19.958;2022-12-29T12:17:02;98402.00;;;11.60
68510;BMP180;55512;50.102;19.958;2022-12-29T12:19:43;98411.80;;;11.68
68510;BMP180;55512;50.102;19.958;2022-12-29T12:25:11;98412.20;;;11.80
68510;BMP180;55512;50.102;19.958;2022-12-29T12:27:55;98407.80;;;11.80
68510;BMP180;55512;50.102;19.958;2022-12-29T12:30:26;98406.20;;;11.90
68510;BMP180;55512;50.102;19.958;2022-12-29T12:33:02;98405.40;;;11.90
68510;BMP180;55512;50.102;19.958;2022-12-29T12:35:47;98401.40;;;11.96
68510;BMP180;55512;50.102;19.958;2022-12-29T12:39:12;98402.80;;;12.00
68510;BMP180;55512;50.102;19.958;2022-12-29T12:46:48;98400.40;;;12.10
68510;BMP180;55512;50.102;19.958;2022-12-29T12:49:55;98398.20;;;12.16
68510;BMP180;55512;50.102;19.958;2022-12-29T13:01:46;98395.60;;;12.20
68510;BMP180;55512;50.102;19.958;2022-12-29T13:13:47;98405.80;;;12.30
68510;BMP180;55512;50.102;19.958;2022-12-29T13:16:36;98404.00;;;12.30
68510;BMP180;55512;50.102;19.958;2022-12-29T13:19:45;98400.80;;;12.30
68510;BMP180;55512;50.102;19.958;2022-12-29T13:22:26;98409.60;;;12.30
68510;BMP180;55512;50.102;19.958;2022-12-29T13:36:43;98423.00;;;12.30
68510;BMP180;55512;50.102;19.958;2022-12-29T13:39:15;98425.40;;;12.30
68510;BMP180;55512;50.102;19.958;2022-12-29T13:41:51;98427.20;;;12.30
68510;BMP180;55512;50.102;19.958;2022-12-29T13:44:29;98426.00;;;12.28
68510;BMP180;55512;50.102;19.958;2022-12-29T13:47:02;98432.00;;;12.22
68510;BMP180;55512;50.102;19.958;2022-12-29T13:49:32;98436.80;;;12.20
68510;BMP180;55512;50.102;19.958;2022-12-29T13:55:21;98427.40;;;12.10
68510;BMP180;55512;50.102;19.958;2022-12-29T14:03:55;98422.00;;;11.90
68510;BMP180;55512;50.102;19.958;2022-12-29T14:06:25;98424.80;;;11.90
68510;BMP180;55512;50.102;19.958;2022-12-29T14:08:58;98420.00;;;11.80
68510;BMP180;55512;50.102;19.958;2022-12-29T14:11:37;98422.20;;;11.78
68510;BMP180;55512;50.102;19.958;2022-12-29T14:14:35;98425.00;;;11.70
68510;BMP180;55512;50.102;19.958;2022-12-29T14:17:11;98428.00;;;11.70
68510;BMP180;55512;50.102;19.958;2022-12-29T14:19:43;98432.20;;;11.62
68510;BMP180;55512;50.102;19.958;2022-12-29T14:22:10;98426.40;;;11.60
68510;BMP180;55512;50.102;19.958;2022-12-29T14:24:46;98427.20;;;11.60
68510;BMP180;55512;50.102;19.958;2022-12-29T14:35:41;98421.80;;;11.40
68510;BMP180;55512;50.102;19.958;2022-12-29T14:38:25;98423.40;;;11.38
68510;BMP180;55512;50.102;19.958;2022-12-29T14:40:52;98426.00;;;11.30
68510;BMP180;55512;50.102;19.958;2022-12-29T14:43:24;98425.00;;;11.20
68510;BMP180;55512;50.102;19.958;2022-12-29T14:46:08;98428.20;;;11.10
68510;BMP180;55512;50.102;19.958;2022-12-29T14:48:43;98428.00;;;11.10
68510;BMP180;55512;50.102;19.958;2022-12-29T14:51:32;98436.20;;;11.00
68510;BMP180;55512;50.102;19.958;2022-12-29T14:53:59;98436.60;;;10.98
68510;BMP180;55512;50.102;19.958;2022-12-29T14:56:28;98434.80;;;10.90
68510;BMP180;55512;50.102;19.958;2022-12-29T14:59:02;98441.00;;;10.88
68510;BMP180;55512;50.102;19.958;2022-12-29T15:01:52;98443.20;;;10.80
68510;BMP180;55512;50.102;19.958;2022-12-29T15:04:30;98442.60;;;10.70
68510;BMP180;55512;50.102;19.958;2022-12-29T15:06:56;98445.40;;;10.70
68510;BMP180;55512;50.102;19.958;2022-12-29T15:09:35;98440.20;;;10.60
68510;BMP180;55512;50.102;19.958;2022-12-29T15:12:28;98439.80;;;10.50
68510;BMP180;55512;50.102;19.958;2022-12-29T15:14:58;98443.40;;;10.40
68510;BMP180;55512;50.102;19.958;2022-12-29T15:17:29;98441.00;;;10.30
68510;BMP180;55512;50.102;19.958;2022-12-29T15:19:58;98441.80;;;10.20
68510;BMP180;55512;50.102;19.958;2022-12-29T15:22:25;98445.80;;;10.12
68510;BMP180;55512;50.102;19.958;2022-12-29T15:24:55;98445.60;;;10.00
68510;BMP180;55512;50.102;19.958;2022-12-29T15:27:25;98444.20;;;9.90
68510;BMP180;55512;50.102;19.958;2022-12-29T15:30:00;98442.40;;;9.80
68510;BMP180;55512;50.102;19.958;2022-12-29T15:32:40;98437.40;;;9.70
68510;BMP180;55512;50.102;19.958;2022-12-29T15:35:35;98444.00;;;9.60
68510;BMP180;55512;50.102;19.958;2022-12-29T15:38:16;98441.00;;;9.50
68510;BMP180;55512;50.102;19.958;2022-12-29T15:40:44;98438.00;;;9.44
68510;BMP180;55512;50.102;19.958;2022-12-29T15:46:11;98437.40;;;9.30
68510;BMP180;55512;50.102;19.958;2022-12-29T15:48:38;98439.40;;;9.20
68510;BMP180;55512;50.102;19.958;2022-12-29T15:51:18;98441.20;;;9.20
68510;BMP180;55512;50.102;19.958;2022-12-29T15:53:50;98440.00;;;9.10
68510;BMP180;55512;50.102;19.958;2022-12-29T15:56:17;98438.80;;;9.10
68510;BMP180;55512;50.102;19.958;2022-12-29T15:58:48;98434.00;;;9.10
68510;BMP180;55512;50.102;19.958;2022-12-29T16:01:27;98438.80;;;9.02
68510;BMP180;55512;50.102;19.958;2022-12-29T16:03:54;98444.40;;;9.00
68510;BMP180;55512;50.102;19.958;2022-12-29T16:06:33;98449.00;;;9.00
68510;BMP180;55512;50.102;19.958;2022-12-29T16:09:07;98449.00;;;8.92
68510;BMP180;55512;50.102;19.958;2022-12-29T16:11:44;98449.00;;;8.90
68510;BMP180;55512;50.102;19.958;2022-12-29T16:14:22;98451.40;;;8.82
68510;BMP180;55512;50.102;19.958;2022-12-29T16:16:50;98446.60;;;8.80
68510;BMP180;55512;50.102;19.958;2022-12-29T16:19:35;98438.40;;;8.70
68510;BMP180;55512;50.102;19.958;2022-12-29T16:22:10;98443.00;;;8.70
68510;BMP180;55512;50.102;19.958;2022-12-29T16:24:39;98440.40;;;8.60
68510;BMP180;55512;50.102;19.958;2022-12-29T16:27:21;98447.00;;;8.60
68510;BMP180;55512;50.102;19.958;2022-12-29T16:29:53;98437.20;;;8.50
68510;BMP180;55512;50.102;19.958;2022-12-29T16:37:39;98435.00;;;8.30
68510;BMP180;55512;50.102;19.958;2022-12-29T16:40:26;98435.00;;;8.30
68510;BMP180;55512;50.102;19.958;2022-12-29T16:43:01;98443.20;;;8.26